Accueil
METAR-TAF:

METAR-TAF

Aéroports :

Farnborough, Angleterre

latitude: 51-17N, longitude: 000-46W, altitude: 65 m

Observation

Le bulletin a été fait il y a 35 minutes, à 12:50 UTC
Vent 10 kt de sud-ouest, variant entre sud/sud-ouest et ouest
Température 22°C
Humidité 53%
Pression 1025 hPa
Visibilité 10 km ou plus

METAR: EGLF 221250Z AUTO 23010KT 200V280 9999 SCT039/// 22/12 Q1025

Heure: 14:25 (13:25 UTC)

Prévision

Le bulletin a été fait il y a 2 heures et 25 minutes, à 11:00 UTC
Prévision valable du 22 à 12 UTC au 22 à 21 UTC
Vent 10 kt de ouest/sud-ouest
Visibilité 10 km ou plus
Quelques nuages à une hauteur de 4500 ft

TAF: EGLF 221100Z 2212/2221 24010KT 9999 FEW045

Observations et prévisions météorologiques de plus de 4000 aéroports (messages METAR et TAF).

Les stations disponibles sont représentées par des disques jaunes et rouges sur la carte.

Passer la souris dessus pour voir le nom de la station.

Cliquer dessus pour voir les observations et prévisions météorologiques.

Pour changer de carte: cliquez sur les boutons verts avec une croix noire pour zoomer, sur le bouton vert avec un tiret pour effectuer un zoom arrière, ou sur les flèches vertes pour les cartes adjacentes.


METAR-TAF: